createdAt,value
2019-03-11T00:02:17.058Z,7.60
2019-03-11T00:04:45.397Z,10.28
2019-03-11T00:07:13.778Z,8.08
2019-03-11T00:09:42.152Z,8.30
2019-03-11T00:12:10.606Z,9.23
2019-03-11T00:14:38.976Z,15.18
2019-03-11T00:17:07.344Z,8.95
2019-03-11T00:19:35.643Z,9.13
2019-03-11T00:22:03.948Z,7.10
2019-03-11T00:24:32.281Z,7.33
2019-03-11T00:27:00.532Z,9.10
2019-03-11T00:29:28.868Z,7.35
2019-03-11T00:31:57.225Z,6.78
2019-03-11T00:34:25.588Z,7.70
2019-03-11T00:36:53.862Z,10.80
2019-03-11T00:39:22.194Z,10.35
2019-03-11T00:41:50.530Z,11.03
2019-03-11T00:44:18.836Z,7.62
2019-03-11T00:46:47.099Z,9.13
2019-03-11T00:49:15.386Z,15.78
2019-03-11T00:51:43.794Z,8.85
2019-03-11T00:54:12.101Z,14.78
2019-03-11T00:56:40.466Z,9.90
2019-03-11T00:59:08.821Z,9.85
2019-03-11T01:01:37.098Z,7.33
2019-03-11T01:04:05.411Z,10.48
2019-03-11T01:06:33.690Z,13.75
2019-03-11T01:09:02.052Z,9.98
2019-03-11T01:11:30.352Z,8.33
2019-03-11T01:13:58.641Z,7.45
2019-03-11T01:16:26.942Z,11.10
2019-03-11T01:18:55.224Z,10.32
2019-03-11T01:21:23.550Z,13.85
2019-03-11T01:23:51.847Z,9.45
2019-03-11T01:26:20.103Z,8.23
2019-03-11T01:28:48.356Z,11.70
2019-03-11T01:31:16.586Z,13.95
2019-03-11T01:33:44.887Z,10.23
2019-03-11T01:36:13.164Z,13.30
2019-03-11T01:38:41.537Z,10.68
2019-03-11T01:41:09.827Z,9.18
2019-03-11T01:43:38.114Z,14.93
2019-03-11T01:46:06.354Z,7.72
2019-03-11T01:48:34.604Z,11.60
2019-03-11T01:51:02.892Z,10.95
2019-03-11T01:53:31.140Z,9.25
2019-03-11T01:56:03.642Z,10.08
2019-03-11T01:58:31.942Z,7.67
2019-03-11T02:01:01.535Z,10.93
2019-03-11T02:03:29.763Z,11.38
2019-03-11T02:05:58.019Z,11.60
2019-03-11T02:08:26.276Z,8.60
2019-03-11T02:10:54.606Z,9.20
2019-03-11T02:13:22.854Z,9.85
2019-03-11T02:15:51.140Z,9.88
2019-03-11T02:18:19.394Z,9.65
2019-03-11T02:20:47.690Z,10.00
2019-03-11T02:23:16.137Z,12.35
2019-03-11T02:25:44.431Z,12.33
2019-03-11T02:28:12.676Z,8.03
2019-03-11T02:30:40.951Z,10.85
2019-03-11T02:33:09.285Z,10.03
2019-03-11T02:35:37.577Z,11.10
2019-03-11T02:38:05.854Z,5.70
2019-03-11T02:40:34.126Z,9.33
2019-03-11T02:43:02.439Z,13.05
2019-03-11T02:45:30.744Z,16.73
2019-03-11T02:47:59.011Z,10.98
2019-03-11T02:50:27.292Z,14.18
2019-03-11T02:52:55.644Z,6.60
2019-03-11T02:55:24.797Z,9.43
2019-03-11T02:57:55.502Z,9.28
2019-03-11T03:00:23.790Z,15.25
2019-03-11T03:02:59.099Z,9.73
2019-03-11T03:05:31.784Z,15.10
2019-03-11T03:08:00.142Z,13.03
2019-03-11T03:10:28.389Z,13.28
2019-03-11T03:12:56.719Z,12.25
2019-03-11T03:15:25.148Z,8.40
2019-03-11T03:17:53.465Z,11.08
2019-03-11T03:20:21.794Z,14.38
2019-03-11T03:22:50.029Z,11.60
2019-03-11T03:25:32.172Z,12.40
2019-03-11T03:27:48.760Z,11.18
2019-03-11T03:30:18.168Z,10.30
2019-03-11T03:32:46.556Z,11.53
2019-03-11T03:35:14.887Z,6.85
2019-03-11T03:37:43.173Z,11.10
2019-03-11T03:40:13.062Z,12.58
2019-03-11T03:42:41.387Z,11.95
2019-03-11T03:45:33.503Z,12.95
2019-03-11T03:48:01.958Z,10.75
2019-03-11T03:50:36.204Z,12.95
2019-03-11T03:53:04.503Z,13.00
2019-03-11T03:55:32.773Z,9.65
2019-03-11T03:58:01.022Z,7.83
2019-03-11T04:00:29.270Z,10.80
2019-03-11T04:02:57.560Z,10.43
2019-03-11T04:05:25.783Z,11.48
2019-03-11T04:07:54.041Z,7.33
2019-03-11T04:10:22.332Z,8.95
2019-03-11T04:12:50.650Z,9.30
2019-03-11T04:15:18.882Z,9.58
2019-03-11T04:17:47.195Z,9.98
2019-03-11T04:20:20.973Z,6.65
2019-03-11T04:22:49.372Z,12.03
2019-03-11T04:25:17.880Z,8.30
2019-03-11T04:27:46.156Z,10.25
2019-03-11T04:30:16.681Z,11.70
2019-03-11T04:32:44.967Z,9.70
2019-03-11T04:35:13.208Z,12.10
2019-03-11T04:37:41.468Z,12.85
2019-03-11T04:40:11.731Z,10.95
2019-03-11T04:42:40.065Z,8.83
2019-03-11T04:45:11.033Z,12.95
2019-03-11T04:47:39.284Z,11.12
2019-03-11T04:50:10.075Z,10.45
2019-03-11T04:52:38.351Z,13.90
2019-03-11T04:55:08.976Z,9.00
2019-03-11T04:57:43.471Z,10.90
2019-03-11T05:00:17.281Z,9.20
2019-03-11T05:02:45.643Z,11.18
2019-03-11T05:05:13.903Z,14.78
2019-03-11T05:07:42.189Z,9.03
2019-03-11T05:10:11.739Z,12.65
2019-03-11T05:12:40.080Z,15.80
2019-03-11T05:15:10.800Z,6.70
2019-03-11T05:17:39.134Z,16.77
2019-03-11T05:20:15.217Z,12.07
2019-03-11T05:22:43.575Z,7.50
2019-03-11T05:25:14.146Z,14.63
2019-03-11T05:27:42.402Z,9.08
2019-03-11T05:30:19.429Z,12.47
2019-03-11T05:32:47.713Z,13.58
2019-03-11T05:35:16.006Z,10.38
2019-03-11T05:37:44.242Z,10.15
2019-03-11T05:40:14.683Z,11.90
2019-03-11T05:42:42.965Z,9.40
2019-03-11T05:45:16.592Z,9.58
2019-03-11T05:50:13.902Z,8.05
2019-03-11T05:52:42.243Z,8.53
2019-03-11T05:55:12.488Z,11.43
2019-03-11T05:57:40.822Z,13.38
2019-03-11T06:00:30.653Z,12.55
2019-03-11T06:02:58.992Z,6.60
2019-03-11T06:05:27.234Z,10.55
2019-03-11T06:07:55.452Z,11.15
2019-03-11T06:10:23.739Z,7.60
2019-03-11T06:12:54.890Z,10.43
2019-03-11T06:15:22.894Z,19.77
2019-03-11T06:17:51.183Z,8.23
2019-03-11T06:20:39.198Z,8.80
2019-03-11T06:23:11.733Z,12.23
2019-03-11T06:25:39.933Z,7.42
2019-03-11T06:28:08.156Z,8.33
2019-03-11T06:30:36.589Z,8.10
2019-03-11T06:33:04.856Z,7.10
2019-03-11T06:35:33.122Z,10.18
2019-03-11T06:38:01.351Z,9.48
2019-03-11T06:40:29.620Z,9.05
2019-03-11T06:42:58.028Z,13.08
2019-03-11T06:45:26.342Z,5.90
2019-03-11T06:47:54.658Z,11.03
2019-03-11T06:50:22.930Z,12.55
2019-03-11T06:52:51.235Z,9.75
2019-03-11T06:55:19.543Z,8.98
2019-03-11T06:57:49.455Z,7.30
2019-03-11T07:00:21.702Z,10.23
2019-03-11T07:02:50.068Z,11.15
2019-03-11T07:05:20.967Z,7.65
2019-03-11T07:07:48.540Z,7.30
2019-03-11T07:10:17.085Z,13.85
2019-03-11T07:12:45.336Z,8.63
2019-03-11T07:15:14.790Z,5.28
2019-03-11T07:17:43.080Z,3.83
2019-03-11T07:20:13.671Z,2.72
2019-03-11T07:22:41.983Z,2.87
2019-03-11T07:25:10.343Z,3.35
2019-03-11T07:27:38.643Z,2.27
2019-03-11T07:30:14.750Z,1.10
2019-03-11T07:32:43.023Z,3.85
2019-03-11T07:35:11.320Z,1.42
2019-03-11T07:37:39.583Z,1.55
2019-03-11T07:40:15.149Z,1.15
2019-03-11T07:42:43.382Z,1.22
2019-03-11T07:45:15.029Z,0.42
2019-03-11T07:47:43.268Z,1.10
2019-03-11T07:50:12.666Z,0.85
2019-03-11T07:52:40.936Z,1.12
2019-03-11T07:55:13.416Z,1.20
2019-03-11T07:57:41.754Z,0.20
2019-03-11T08:00:14.267Z,0.15
2019-03-11T08:02:42.490Z,0.50
2019-03-11T08:05:10.755Z,2.55
2019-03-11T08:07:39.055Z,1.25
2019-03-11T08:10:15.261Z,0.55
2019-03-11T08:12:43.613Z,0.30
2019-03-11T08:15:13.616Z,3.72
2019-03-11T08:17:41.863Z,4.05
2019-03-11T08:20:11.523Z,0.80
2019-03-11T08:22:39.846Z,0.42
2019-03-11T08:25:10.708Z,2.98
2019-03-11T08:27:38.952Z,0.88
2019-03-11T08:30:13.033Z,1.32
2019-03-11T08:32:41.286Z,0.47
2019-03-11T08:35:10.044Z,1.37
2019-03-11T08:37:38.311Z,0.42
2019-03-11T08:40:14.896Z,0.70
2019-03-11T08:42:43.155Z,0.68
2019-03-11T08:45:13.744Z,0.65
2019-03-11T08:47:42.055Z,2.58
2019-03-11T08:50:12.516Z,1.12
2019-03-11T08:52:40.727Z,2.90
2019-03-11T08:55:09.447Z,2.72
2019-03-11T08:57:40.074Z,0.68
2019-03-11T09:00:10.681Z,0.40
2019-03-11T09:02:38.954Z,0.30
2019-03-11T09:05:09.427Z,1.20
2019-03-11T09:07:37.665Z,0.20
2019-03-11T09:10:13.800Z,1.75
2019-03-11T09:12:43.709Z,2.22
2019-03-11T09:15:13.874Z,2.15
2019-03-11T09:17:42.123Z,1.17
2019-03-11T09:20:13.086Z,2.65
2019-03-11T09:22:41.442Z,1.95
2019-03-11T09:25:12.948Z,0.78
2019-03-11T09:27:44.018Z,1.00
2019-03-11T09:30:15.299Z,0.95
2019-03-11T09:32:43.619Z,0.57
2019-03-11T09:35:11.877Z,0.55
2019-03-11T09:37:40.186Z,2.42
2019-03-11T09:40:11.392Z,0.60
2019-03-11T09:42:39.651Z,0.50
2019-03-11T09:45:18.039Z,6.72
2019-03-11T09:47:46.280Z,1.57
2019-03-11T09:50:15.391Z,3.12
2019-03-11T09:52:43.635Z,1.15
2019-03-11T09:55:19.510Z,2.65
2019-03-11T09:57:47.826Z,2.08
2019-03-11T10:00:20.888Z,1.60
2019-03-11T10:02:52.957Z,2.62
2019-03-11T10:05:19.181Z,2.62
2019-03-11T10:07:48.753Z,3.42
2019-03-11T10:10:18.706Z,4.40
2019-03-11T10:12:47.038Z,1.67
2019-03-11T10:15:19.476Z,4.35
2019-03-11T10:17:47.798Z,2.20
2019-03-11T10:20:17.218Z,1.62
2019-03-11T10:22:45.694Z,2.45
2019-03-11T10:25:16.168Z,2.22
2019-03-11T10:27:44.581Z,1.32
2019-03-11T10:30:24.817Z,1.25
2019-03-11T10:32:53.092Z,1.45
2019-03-11T10:35:36.869Z,2.77
2019-03-11T10:37:51.555Z,1.87
2019-03-11T10:40:24.026Z,2.05
2019-03-11T10:42:52.269Z,0.75
2019-03-11T10:45:30.538Z,1.60
2019-03-11T10:47:50.514Z,2.37
2019-03-11T10:50:19.581Z,2.33
2019-03-11T10:52:47.833Z,1.37
2019-03-11T10:55:21.322Z,4.10
2019-03-11T11:00:33.218Z,2.12
2019-03-11T11:03:01.520Z,2.25
2019-03-11T11:05:29.872Z,2.40
2019-03-11T11:07:58.149Z,1.72
2019-03-11T11:10:26.419Z,4.58
2019-03-11T11:12:54.736Z,2.40
2019-03-11T11:15:30.373Z,1.47
2019-03-11T11:17:58.611Z,3.05
2019-03-11T11:20:26.927Z,5.30
2019-03-11T11:22:55.356Z,2.92
2019-03-11T11:25:24.626Z,2.47
2019-03-11T11:27:52.889Z,6.05
2019-03-11T11:30:25.164Z,2.35
2019-03-11T11:32:53.645Z,5.35
2019-03-11T11:35:21.889Z,4.15
2019-03-11T11:37:50.143Z,1.55
2019-03-11T11:40:25.492Z,2.02
2019-03-11T11:42:53.854Z,3.00
2019-03-11T11:45:24.272Z,6.53
2019-03-11T11:47:52.553Z,2.55
2019-03-11T11:50:24.604Z,3.62
2019-03-11T11:52:53.998Z,1.92
2019-03-11T11:55:22.746Z,2.25
2019-03-11T11:57:51.085Z,6.70
2019-03-11T12:00:28.920Z,3.12
2019-03-11T12:02:57.179Z,2.90
2019-03-11T12:05:25.447Z,3.87
2019-03-11T12:07:53.750Z,3.83
2019-03-11T12:10:33.167Z,4.70
2019-03-11T12:13:01.440Z,4.67
2019-03-11T12:15:31.102Z,3.27
2019-03-11T12:17:59.417Z,3.65
2019-03-11T12:20:31.247Z,3.98
2019-03-11T12:22:59.536Z,4.03
2019-03-11T12:25:27.783Z,4.85
2019-03-11T12:27:58.056Z,4.40
2019-03-11T12:30:35.396Z,7.05
2019-03-11T12:33:03.715Z,10.28
2019-03-11T12:35:32.019Z,9.75
2019-03-11T12:38:06.012Z,4.55
2019-03-11T12:40:34.355Z,6.75
2019-03-11T12:43:02.637Z,6.17
2019-03-11T12:45:30.916Z,5.53
2019-03-11T12:47:59.220Z,4.78
2019-03-11T12:50:31.732Z,2.15
2019-03-11T12:52:59.981Z,3.05
2019-03-11T12:55:28.235Z,3.70
2019-03-11T12:57:56.545Z,6.33
2019-03-11T13:00:25.384Z,2.67
2019-03-11T13:02:53.693Z,5.17
2019-03-11T13:05:21.956Z,2.87
2019-03-11T13:07:50.261Z,2.00
2019-03-11T13:10:31.687Z,2.52
2019-03-11T13:12:59.966Z,3.52
2019-03-11T13:15:28.268Z,3.00
2019-03-11T13:17:56.552Z,2.87
2019-03-11T13:20:32.585Z,3.33
2019-03-11T13:23:00.889Z,3.67
2019-03-11T13:25:29.171Z,1.45
2019-03-11T13:27:57.485Z,1.87
2019-03-11T13:30:25.829Z,3.25
2019-03-11T13:32:54.137Z,1.17
2019-03-11T13:35:22.563Z,1.62
2019-03-11T13:37:50.865Z,4.33
2019-03-11T13:40:19.139Z,4.17
2019-03-11T13:42:47.427Z,5.37
2019-03-11T13:45:19.176Z,1.98
2019-03-11T13:47:47.530Z,3.30
2019-03-11T13:50:18.946Z,2.45
2019-03-11T13:52:47.402Z,1.25
2019-03-11T13:55:16.627Z,2.65
2019-03-11T13:57:47.273Z,2.92
2019-03-11T14:00:19.935Z,3.72
2019-03-11T14:02:48.357Z,3.93
2019-03-11T14:05:16.722Z,1.52
2019-03-11T14:07:45.122Z,4.78
2019-03-11T14:10:14.153Z,3.45
2019-03-11T14:12:42.443Z,2.98
2019-03-11T14:15:15.859Z,1.57
2019-03-11T14:17:44.149Z,2.47
2019-03-11T14:20:13.984Z,2.70
2019-03-11T14:22:42.290Z,2.00
2019-03-11T14:25:11.136Z,3.08
2019-03-11T14:27:39.449Z,4.92
2019-03-11T14:30:21.728Z,4.53
2019-03-11T14:32:50.021Z,2.72
2019-03-11T14:35:18.328Z,1.77
2019-03-11T14:37:46.683Z,4.70
2019-03-11T14:40:17.208Z,7.92
2019-03-11T14:42:45.493Z,2.98
2019-03-11T14:45:18.672Z,2.67
2019-03-11T14:47:47.049Z,4.92
2019-03-11T14:50:17.041Z,3.00
2019-03-11T14:52:45.285Z,1.22
2019-03-11T14:55:14.096Z,2.90
2019-03-11T14:57:42.383Z,2.35
2019-03-11T15:00:18.380Z,0.95
2019-03-11T15:02:46.271Z,4.15
2019-03-11T15:05:15.363Z,2.37
2019-03-11T15:07:43.667Z,2.87
2019-03-11T15:10:13.515Z,5.37
2019-03-11T15:12:41.800Z,5.67
2019-03-11T15:15:13.095Z,2.08
2019-03-11T15:17:41.384Z,3.12
2019-03-11T15:20:09.727Z,6.45
2019-03-11T15:22:37.974Z,3.20
2019-03-11T15:25:08.634Z,3.37
2019-03-11T15:27:36.891Z,3.47
2019-03-11T15:30:13.639Z,1.07
2019-03-11T15:32:41.873Z,4.20
2019-03-11T15:35:10.665Z,1.32
2019-03-11T15:37:39.022Z,4.75
2019-03-11T15:40:12.126Z,4.78
2019-03-11T15:42:40.458Z,4.80
2019-03-11T15:45:11.838Z,5.35
2019-03-11T15:47:40.120Z,3.47
2019-03-11T15:50:17.671Z,3.98
2019-03-11T15:52:45.935Z,5.10
2019-03-11T15:55:15.896Z,3.58
2019-03-11T15:57:44.195Z,3.60
2019-03-11T16:00:15.463Z,6.22
2019-03-11T16:02:43.720Z,7.60
2019-03-11T16:05:12.011Z,3.47
2019-03-11T16:07:40.312Z,2.80
2019-03-11T16:10:17.160Z,6.37
2019-03-11T16:12:43.376Z,3.65
2019-03-11T16:15:12.109Z,4.37
2019-03-11T16:17:40.586Z,5.00
2019-03-11T16:20:16.723Z,5.95
2019-03-11T16:22:44.981Z,4.85
2019-03-11T16:25:13.265Z,3.25
2019-03-11T16:27:41.578Z,4.90
2019-03-11T16:30:25.898Z,6.97
2019-03-11T16:32:59.936Z,10.55
2019-03-11T16:35:25.996Z,8.80
2019-03-11T16:37:54.308Z,8.93
2019-03-11T16:40:22.582Z,9.85
2019-03-11T16:42:50.803Z,9.63
2019-03-11T16:45:20.783Z,6.10
2019-03-11T16:47:50.479Z,5.92
2019-03-11T16:50:26.950Z,8.58
2019-03-11T16:52:55.310Z,13.30
2019-03-11T16:55:31.601Z,8.03
2019-03-11T16:57:59.920Z,7.17
2019-03-11T17:00:29.798Z,7.78
2019-03-11T17:02:58.063Z,5.37
2019-03-11T17:05:26.407Z,9.70
2019-03-11T17:07:54.684Z,4.40
2019-03-11T17:10:23.007Z,3.52
2019-03-11T17:12:51.303Z,6.90
2019-03-11T17:15:19.606Z,5.80
2019-03-11T17:17:47.872Z,5.72
2019-03-11T17:20:18.271Z,5.97
2019-03-11T17:22:46.542Z,4.95
2019-03-11T17:25:15.038Z,7.62
2019-03-11T17:27:43.271Z,6.33
2019-03-11T17:30:14.895Z,9.68
2019-03-11T17:32:44.743Z,6.65
2019-03-11T17:35:15.446Z,7.40
2019-03-11T17:37:43.694Z,20.57
2019-03-11T17:40:14.442Z,10.05
2019-03-11T17:42:42.719Z,6.30
2019-03-11T17:45:12.652Z,6.25
2019-03-11T17:47:42.591Z,7.65
2019-03-11T17:50:14.804Z,8.23
2019-03-11T17:52:45.080Z,6.47
2019-03-11T17:55:14.284Z,5.72
2019-03-11T17:57:43.764Z,3.65
2019-03-11T18:00:27.160Z,6.22
2019-03-11T18:02:55.412Z,7.33
2019-03-11T18:05:50.883Z,5.10
2019-03-11T18:08:21.362Z,4.55
2019-03-11T18:10:50.819Z,4.92
2019-03-11T18:13:19.100Z,10.05
2019-03-11T18:15:47.459Z,6.10
2019-03-11T18:18:15.689Z,5.72
2019-03-11T18:20:43.960Z,9.88
2019-03-11T18:23:12.183Z,8.65
2019-03-11T18:25:40.483Z,8.75
2019-03-11T18:28:08.756Z,5.87
2019-03-11T18:30:37.039Z,5.80
2019-03-11T18:33:05.440Z,7.30
2019-03-11T18:35:34.262Z,5.55
2019-03-11T18:38:04.433Z,6.70
2019-03-11T18:40:32.715Z,4.05
2019-03-11T18:43:00.967Z,4.78
2019-03-11T18:45:29.279Z,6.78
2019-03-11T18:47:57.610Z,5.37
2019-03-11T18:50:25.883Z,6.87
2019-03-11T18:52:54.269Z,4.47
2019-03-11T18:55:22.719Z,9.18
2019-03-11T18:57:51.002Z,8.53
2019-03-11T19:00:21.236Z,4.87
2019-03-11T19:02:49.639Z,4.97
2019-03-11T19:05:22.039Z,7.42
2019-03-11T19:07:50.403Z,7.65
2019-03-11T19:10:18.707Z,37.33
2019-03-11T19:12:47.147Z,6.12
2019-03-11T19:15:23.348Z,6.08
2019-03-11T19:17:52.160Z,5.70
2019-03-11T19:20:21.997Z,6.22
2019-03-11T19:22:50.371Z,4.58
2019-03-11T19:25:18.699Z,5.60
2019-03-11T19:27:47.026Z,4.33
2019-03-11T19:30:27.667Z,4.75
2019-03-11T19:32:57.693Z,6.30
2019-03-11T19:35:26.005Z,4.15
2019-03-11T19:37:54.429Z,7.72
2019-03-11T19:40:24.004Z,6.45
2019-03-11T19:42:52.461Z,5.58
2019-03-11T19:45:20.790Z,8.40
2019-03-11T19:47:49.168Z,4.15
2019-03-11T19:50:20.544Z,5.95
2019-03-11T19:52:58.482Z,5.78
2019-03-11T19:55:18.822Z,6.62
2019-03-11T19:57:47.179Z,3.72
2019-03-11T20:00:20.442Z,6.45
2019-03-11T20:05:32.930Z,6.33
2019-03-11T20:08:01.403Z,5.08
2019-03-11T20:10:29.858Z,7.72
2019-03-11T20:12:58.170Z,6.45
2019-03-11T20:15:26.581Z,4.72
2019-03-11T20:17:54.923Z,6.03
2019-03-11T20:20:23.286Z,5.42
2019-03-11T20:22:52.353Z,6.92
2019-03-11T20:25:29.362Z,9.58
2019-03-11T20:27:57.710Z,5.92
2019-03-11T20:30:26.271Z,14.63
2019-03-11T20:32:54.720Z,9.45
2019-03-11T20:35:22.976Z,6.35
2019-03-11T20:37:51.416Z,7.00
2019-03-11T20:40:19.708Z,6.67
2019-03-11T20:42:51.010Z,4.65
2019-03-11T20:45:20.202Z,6.97
2019-03-11T20:47:48.666Z,7.40
2019-03-11T20:50:18.022Z,7.95
2019-03-11T20:52:46.439Z,5.10
2019-03-11T20:55:16.242Z,4.58
2019-03-11T20:57:44.540Z,6.55
2019-03-11T21:00:23.929Z,4.83
2019-03-11T21:02:52.384Z,5.17
2019-03-11T21:05:36.032Z,8.18
2019-03-11T21:10:32.019Z,7.42
2019-03-11T21:13:00.339Z,6.42
2019-03-11T21:15:32.335Z,6.60
2019-03-11T21:18:09.812Z,3.47
2019-03-11T21:20:38.265Z,3.27
2019-03-11T21:23:12.725Z,4.37
2019-03-11T21:25:45.761Z,7.00
2019-03-11T21:28:14.180Z,5.67
2019-03-11T21:30:57.825Z,4.12
2019-03-11T21:36:09.069Z,4.85
2019-03-11T21:38:45.019Z,4.17
2019-03-11T21:41:22.343Z,4.15
2019-03-11T21:43:50.681Z,4.53
2019-03-11T21:46:24.360Z,6.20
2019-03-11T21:48:56.374Z,4.80
2019-03-11T21:51:29.528Z,4.42
2019-03-11T21:53:59.352Z,8.00
2019-03-11T21:56:37.655Z,5.37
2019-03-11T21:59:06.172Z,7.20
2019-03-11T22:01:34.680Z,5.12
2019-03-11T22:04:03.093Z,5.30
2019-03-11T22:06:31.490Z,2.80
2019-03-11T22:09:00.742Z,6.72
2019-03-11T22:11:29.011Z,4.70
2019-03-11T22:14:01.277Z,4.10
2019-03-11T22:16:29.647Z,3.35
2019-03-11T22:18:58.065Z,4.92
2019-03-11T22:21:26.456Z,5.33
2019-03-11T22:23:54.953Z,5.45
2019-03-11T22:26:23.417Z,6.90
2019-03-11T22:28:54.543Z,5.37
2019-03-11T22:31:22.823Z,5.42
2019-03-11T22:33:51.203Z,6.55
2019-03-11T22:36:19.597Z,3.12
2019-03-11T22:38:47.958Z,6.78
2019-03-11T22:41:16.266Z,6.10
2019-03-11T22:43:44.630Z,4.58
2019-03-11T22:46:12.892Z,5.75
2019-03-11T22:48:42.804Z,3.90
2019-03-11T22:51:11.103Z,3.40
2019-03-11T22:53:42.403Z,6.25
2019-03-11T22:56:10.682Z,5.90
2019-03-11T22:58:38.979Z,3.70
2019-03-11T23:01:07.366Z,5.92
2019-03-11T23:03:39.383Z,7.08
2019-03-11T23:06:07.675Z,7.17
2019-03-11T23:08:42.809Z,5.83
2019-03-11T23:11:13.224Z,6.42
2019-03-11T23:13:41.606Z,3.10
2019-03-11T23:16:10.036Z,4.90
2019-03-11T23:18:40.446Z,4.65
2019-03-11T23:21:10.095Z,3.05
2019-03-11T23:23:38.541Z,7.70
2019-03-11T23:26:06.978Z,5.65
2019-03-11T23:28:35.282Z,6.05
2019-03-11T23:31:03.574Z,5.87
2019-03-11T23:33:31.976Z,7.58
2019-03-11T23:36:00.358Z,6.03
2019-03-11T23:38:30.766Z,3.70
2019-03-11T23:40:58.836Z,3.25
2019-03-11T23:43:27.254Z,4.15
2019-03-11T23:45:55.599Z,4.92
2019-03-11T23:48:25.723Z,5.10
2019-03-11T23:50:54.136Z,6.80
2019-03-11T23:53:23.486Z,4.37
2019-03-11T23:55:53.552Z,7.87
2019-03-11T23:58:21.917Z,5.75
